Time;durP1;ratioP1;P1;durP2;ratioP2;P2;SDS_P1;SDS_P2;PMS_P1;PMS_P2;Temp;Humidity;BMP_temperature;BMP_pressure;BME280_temperature;BME280_humidity;BME280_pressure;Samples;Min_cycle;Max_cycle;Signal;HPM_P1;HPM_P2
2021/12/20 00:00:19;;;;;;;1.08;1.08;;;;;;;;;;7333064;19;161984;-15
2021/12/20 00:02:55;;;;;;;1.38;1.38;;;;;;;;;;7332654;19;162419;-15
2021/12/20 00:05:34;;;;;;;1.25;1.25;;;;;;;;;;7331630;19;154673;-16
2021/12/20 00:08:06;;;;;;;1.30;1.30;;;;;;;;;;7331753;19;153565;-14
2021/12/20 00:10:39;;;;;;;1.58;1.48;;;;;;;;;;7332530;19;162169;-15
2021/12/20 00:13:10;;;;;;;1.25;1.25;;;;;;;;;;7332539;19;162360;-14
2021/12/20 00:15:45;;;;;;;1.55;1.45;;;;;;;;;;7332797;19;154028;-13
2021/12/20 00:18:16;;;;;;;1.55;1.45;;;;;;;;;;7332763;19;153551;-15
2021/12/20 00:20:50;;;;;;;1.25;1.25;;;;;;;;;;7332327;19;162572;-15
2021/12/20 00:23:21;;;;;;;1.35;1.35;;;;;;;;;;7331584;19;162500;-15
2021/12/20 00:25:52;;;;;;;1.13;1.13;;;;;;;;;;7334374;19;154061;-15
2021/12/20 00:28:23;;;;;;;1.30;1.30;;;;;;;;;;7331707;19;153529;-15
2021/12/20 00:30:55;;;;;;;2.55;1.30;;;;;;;;;;7333850;19;161818;-15
2021/12/20 00:33:28;;;;;;;1.40;1.40;;;;;;;;;;7331999;19;162769;-14
2021/12/20 00:36:02;;;;;;;1.33;1.30;;;;;;;;;;7332284;19;153953;-14
2021/12/20 00:41:17;;;;;;;1.00;1.00;;;;;;;;;;7336001;19;161963;-13
2021/12/20 00:43:48;;;;;;;1.42;1.40;;;;;;;;;;7330623;19;162503;-14
2021/12/20 00:46:19;;;;;;;1.17;1.17;;;;;;;;;;7331872;19;154007;-14
2021/12/20 00:48:51;;;;;;;1.20;1.20;;;;;;;;;;7331923;19;153460;-15
2021/12/20 00:51:24;;;;;;;1.15;1.15;;;;;;;;;;7330108;19;162040;-15
2021/12/20 00:53:56;;;;;;;1.27;1.27;;;;;;;;;;7331437;19;162438;-15
2021/12/20 00:56:29;;;;;;;1.20;1.20;;;;;;;;;;7329651;19;154277;-15
2021/12/20 00:59:07;;;;;;;1.30;1.30;;;;;;;;;;7328237;19;153891;-15
2021/12/20 01:01:39;;;;;;;1.53;1.43;;;;;;;;;;7327771;19;161905;-14
2021/12/20 01:04:11;;;;;;;1.98;1.50;;;;;;;;;;7326339;19;162336;-15
2021/12/20 07:34:28;;;;;;;2.25;2.05;;;;;;;;;;7370595;19;132520;-16
2021/12/20 07:37:00;;;;;;;2.30;2.10;;;;;;;;;;7366328;19;153342;-15
2021/12/20 07:39:31;;;;;;;2.72;2.50;;;;;;;;;;7365595;19;161936;-15
2021/12/20 07:42:03;;;;;;;2.65;2.10;;;;;;;;;;7360105;19;162550;-15
2021/12/20 07:44:34;;;;;;;2.72;2.20;;;;;;;;;;7364413;19;153919;-16
2021/12/20 07:47:06;;;;;;;2.63;1.88;;;;;;;;;;7364706;19;153536;-16
2021/12/20 07:49:40;;;;;;;2.75;2.40;;;;;;;;;;7364280;19;161981;-15
2021/12/20 07:52:12;;;;;;;2.42;2.08;;;;;;;;;;7364209;19;162501;-16
2021/12/20 07:54:43;;;;;;;2.33;2.10;;;;;;;;;;7364610;19;153912;-17
2021/12/20 07:57:14;;;;;;;2.15;1.80;;;;;;;;;;7364448;19;153496;-15
2021/12/20 07:59:45;;;;;;;3.40;2.20;;;;;;;;;;7364164;19;161839;-16
2021/12/20 08:02:19;;;;;;;2.50;2.05;;;;;;;;;;7363437;19;162370;-16
2021/12/20 08:04:53;;;;;;;2.85;2.10;;;;;;;;;;7364468;19;154017;-15
2021/12/20 08:07:24;;;;;;;2.35;1.90;;;;;;;;;;7364252;19;153799;-16
2021/12/20 08:09:55;;;;;;;2.03;1.80;;;;;;;;;;7363857;19;161805;-15
2021/12/20 08:12:26;;;;;;;1.77;1.67;;;;;;;;;;7363739;19;162541;-16
2021/12/20 08:14:58;;;;;;;2.13;1.80;;;;;;;;;;7364013;19;154080;-16
2021/12/20 08:17:31;;;;;;;2.03;1.90;;;;;;;;;;7363789;19;153564;-15
2021/12/20 08:20:04;;;;;;;;;;;;;;;;;;7364032;19;161771;-14
2021/12/20 08:22:36;;;;;;;2.80;1.90;;;;;;;;;;7362879;19;162705;-15
2021/12/20 08:25:08;;;;;;;2.35;1.83;;;;;;;;;;7363674;19;153977;-16
2021/12/20 08:27:40;;;;;;;1.80;1.67;;;;;;;;;;7362538;19;153785;-15
2021/12/20 08:30:12;;;;;;;3.22;1.92;;;;;;;;;;7363213;19;161735;-15
2021/12/20 08:32:43;;;;;;;2.00;1.80;;;;;;;;;;7361018;19;162360;-16
2021/12/20 08:35:18;;;;;;;2.78;1.58;;;;;;;;;;7336677;19;153875;-15
2021/12/20 08:37:50;;;;;;;2.13;1.55;;;;;;;;;;7334618;19;153813;-15
2021/12/20 08:40:22;;;;;;;2.10;1.80;;;;;;;;;;7334247;19;161802;-14
2021/12/20 08:42:54;;;;;;;1.80;1.70;;;;;;;;;;7333430;19;162346;-14
2021/12/20 08:45:26;;;;;;;1.70;1.52;;;;;;;;;;7333552;19;153828;-15
2021/12/20 08:47:57;;;;;;;2.15;1.92;;;;;;;;;;7334419;19;153493;-15
2021/12/20 08:50:31;;;;;;;1.85;1.75;;;;;;;;;;7333751;19;163148;-14
2021/12/20 08:53:03;;;;;;;2.25;1.60;;;;;;;;;;7332582;19;162437;-15
2021/12/20 08:55:34;;;;;;;2.13;1.75;;;;;;;;;;7334221;19;154095;-16
2021/12/20 08:58:05;;;;;;;2.00;1.80;;;;;;;;;;7332712;19;153540;-16
2021/12/20 09:00:38;;;;;;;2.17;1.70;;;;;;;;;;7333560;19;161794;-15
2021/12/20 09:03:09;;;;;;;;;;;;;;;;;;7333565;19;162642;-14
2021/12/20 09:05:43;;;;;;;2.30;1.52;;;;;;;;;;7334244;19;154178;-15
2021/12/20 09:08:16;;;;;;;2.13;1.85;;;;;;;;;;7333829;19;153710;-15
2021/12/20 09:10:48;;;;;;;2.38;1.88;;;;;;;;;;7332150;19;161948;-15
2021/12/20 09:13:20;;;;;;;1.98;1.80;;;;;;;;;;7331962;19;162544;-14
2021/12/20 09:15:51;;;;;;;1.77;1.67;;;;;;;;;;7333425;19;154393;-15
2021/12/20 09:18:25;;;;;;;1.50;1.40;;;;;;;;;;7333532;19;153505;-15
2021/12/20 09:21:00;;;;;;;1.70;1.60;;;;;;;;;;7333189;19;161889;-16
2021/12/20 09:23:32;;;;;;;1.58;1.48;;;;;;;;;;7332066;19;162355;-15
2021/12/20 09:26:03;;;;;;;1.70;1.60;;;;;;;;;;7333142;19;153731;-14
2021/12/20 09:28:35;;;;;;;1.92;1.70;;;;;;;;;;7332202;19;153693;-15
2021/12/20 09:31:08;;;;;;;1.65;1.50;;;;;;;;;;7332814;19;161776;-16
2021/12/20 09:33:39;;;;;;;1.50;1.40;;;;;;;;;;7330751;19;162534;-15
2021/12/20 09:36:13;;;;;;;1.52;1.42;;;;;;;;;;7333029;19;154023;-15
2021/12/20 09:38:45;;;;;;;1.42;1.33;;;;;;;;;;7331900;19;153750;-15
2021/12/20 09:41:59;;;;;;;1.70;1.60;;;;;;;;;;7332516;19;161987;-16
2021/12/20 09:44:12;;;;;;;1.50;1.40;;;;;;;;;;7330901;19;162551;-16
2021/12/20 09:46:43;;;;;;;1.52;1.42;;;;;;;;;;7330420;19;154008;-14
2021/12/20 09:49:15;;;;;;;1.90;1.65;;;;;;;;;;7332520;19;153528;-14
2021/12/20 09:51:48;;;;;;;1.67;1.58;;;;;;;;;;7332292;19;161810;-14
2021/12/20 09:54:20;;;;;;;1.50;1.40;;;;;;;;;;7332067;19;162511;-16
2021/12/20 09:56:52;;;;;;;1.92;1.83;;;;;;;;;;7332449;19;154196;-14
2021/12/20 09:59:26;;;;;;;1.33;1.23;;;;;;;;;;7332258;19;153752;-14
2021/12/20 10:01:58;;;;;;;1.40;1.30;;;;;;;;;;7331958;19;162137;-16
2021/12/20 10:04:30;;;;;;;1.65;1.55;;;;;;;;;;7330516;19;162364;-14
2021/12/20 10:07:04;;;;;;;2.15;1.70;;;;;;;;;;7332141;19;153891;-13
2021/12/20 10:09:37;;;;;;;1.45;1.35;;;;;;;;;;7331956;19;153519;-15
2021/12/20 10:12:17;;;;;;;1.55;1.45;;;;;;;;;;7331885;19;161964;-13
2021/12/20 10:15:04;;;;;;;1.67;1.58;;;;;;;;;;7331398;19;162359;-14
2021/12/20 10:17:51;;;;;;;1.40;1.23;;;;;;;;;;7331930;19;153920;-14
2021/12/20 10:20:26;;;;;;;1.45;1.35;;;;;;;;;;7331764;19;153739;-14
2021/12/20 10:23:13;;;;;;;1.90;1.50;;;;;;;;;;7331357;19;161908;-14
2021/12/20 10:25:47;;;;;;;1.30;1.20;;;;;;;;;;7328557;19;162922;-16
2021/12/20 10:28:21;;;;;;;1.63;1.52;;;;;;;;;;7331654;19;154088;-16
2021/12/20 10:30:55;;;;;;;2.08;1.88;;;;;;;;;;7331376;19;153481;-15
2021/12/20 10:33:27;;;;;;;1.30;1.20;;;;;;;;;;7329296;19;161974;-15
2021/12/20 10:36:01;;;;;;;1.48;1.38;;;;;;;;;;7331068;19;162500;-15
2021/12/20 10:38:38;;;;;;;1.50;1.40;;;;;;;;;;7330088;19;153931;-15
2021/12/20 10:41:14;;;;;;;1.02;1.02;;;;;;;;;;7331124;19;153700;-15
2021/12/20 10:43:51;;;;;;;1.60;1.50;;;;;;;;;;7329602;19;162122;-15
2021/12/20 10:46:24;;;;;;;1.60;1.50;;;;;;;;;;7330832;19;162381;-14
2021/12/20 10:49:03;;;;;;;1.20;1.10;;;;;;;;;;7329736;19;154192;-16
2021/12/20 10:51:37;;;;;;;1.30;1.20;;;;;;;;;;7330680;19;153507;-15
2021/12/20 10:54:15;;;;;;;1.40;1.30;;;;;;;;;;7330435;19;161930;-15
2021/12/20 10:56:52;;;;;;;1.38;1.27;;;;;;;;;;7329385;19;162602;-15
2021/12/20 10:59:25;;;;;;;1.45;1.35;;;;;;;;;;7329371;19;154070;-15
2021/12/20 11:05:00;;;;;;;1.35;1.25;;;;;;;;;;7329041;19;161817;-16
2021/12/20 11:10:17;;;;;;;1.40;1.30;;;;;;;;;;7328586;19;153927;-16
2021/12/20 11:12:48;;;;;;;1.20;1.10;;;;;;;;;;7330320;19;153981;-15
2021/12/20 11:15:19;;;;;;;1.48;1.25;;;;;;;;;;7328680;19;161964;-14
2021/12/20 11:17:50;;;;;;;1.60;1.30;;;;;;;;;;7329555;19;162747;-16
2021/12/20 11:20:23;;;;;;;1.38;1.25;;;;;;;;;;7330092;19;153939;-14
2021/12/20 11:23:05;;;;;;;1.20;1.10;;;;;;;;;;7329777;19;153716;-16
2021/12/20 11:25:39;;;;;;;1.40;1.30;;;;;;;;;;7327924;19;161860;-15
2021/12/20 11:28:10;;;;;;;1.10;1.10;;;;;;;;;;7329517;19;162537;-16
2021/12/20 11:30:41;;;;;;;1.38;1.27;;;;;;;;;;7329648;19;154046;-15
2021/12/20 11:33:14;;;;;;;1.10;1.10;;;;;;;;;;7327940;19;153778;-16
2021/12/20 11:35:45;;;;;;;1.30;1.20;;;;;;;;;;7329394;19;162559;-15
2021/12/20 11:38:16;;;;;;;1.10;1.10;;;;;;;;;;7328681;19;162416;-15
2021/12/20 11:40:53;;;;;;;1.20;1.10;;;;;;;;;;7329460;19;154031;-15
2021/12/20 11:43:24;;;;;;;1.25;1.20;;;;;;;;;;7329063;19;153579;-16
2021/12/20 11:45:56;;;;;;;1.20;1.10;;;;;;;;;;7325844;19;162191;-14
2021/12/20 11:48:30;;;;;;;0.97;0.97;;;;;;;;;;7327497;19;162370;-15
2021/12/20 11:51:03;;;;;;;1.40;1.30;;;;;;;;;;7329146;19;154229;-15
2021/12/20 11:53:40;;;;;;;1.10;1.00;;;;;;;;;;7328923;19;153501;-15
2021/12/20 11:56:14;;;;;;;1.50;1.40;;;;;;;;;;7328309;19;161901;-14
2021/12/20 11:58:49;;;;;;;1.05;1.05;;;;;;;;;;7328285;19;162413;-15
2021/12/20 12:01:22;;;;;;;1.50;1.40;;;;;;;;;;7328747;19;154045;-15
2021/12/20 12:03:58;;;;;;;1.20;1.10;;;;;;;;;;7328632;19;153585;-14
2021/12/20 12:06:31;;;;;;;1.52;1.20;;;;;;;;;;7326062;19;161648;-14
2021/12/20 12:09:03;;;;;;;1.27;1.27;;;;;;;;;;7328400;19;162657;-14
2021/12/20 12:11:47;;;;;;;1.00;1.00;;;;;;;;;;7335473;19;154533;-13
2021/12/20 12:14:36;;;;;;;1.30;1.20;;;;;;;;;;7335180;19;153383;-14
2021/12/20 12:17:14;;;;;;;1.30;1.20;;;;;;;;;;7334866;19;161729;-14
2021/12/20 12:19:49;;;;;;;1.20;1.10;;;;;;;;;;7334770;19;162509;-15
2021/12/20 12:22:40;;;;;;;1.10;1.00;;;;;;;;;;7334790;19;154249;-14
2021/12/20 12:25:15;;;;;;;1.10;1.10;;;;;;;;;;7333423;19;153904;-14
2021/12/20 12:27:59;;;;;;;1.30;1.23;;;;;;;;;;7334447;19;161986;-14
2021/12/20 12:30:33;;;;;;;1.02;1.02;;;;;;;;;;7334392;19;162649;-14
2021/12/20 12:33:34;;;;;;;1.20;1.20;;;;;;;;;;7333423;19;153969;-15
2021/12/20 12:36:28;;;;;;;1.20;1.10;;;;;;;;;;7334524;19;153584;-15
2021/12/20 12:39:02;;;;;;;0.90;0.90;;;;;;;;;;7333867;19;162049;-15
2021/12/20 12:41:44;;;;;;;1.10;1.10;;;;;;;;;;7334113;19;162344;-15
2021/12/20 12:44:27;;;;;;;1.00;0.93;;;;;;;;;;7334538;19;153998;-15
2021/12/20 12:47:08;;;;;;;1.00;1.00;;;;;;;;;;7331347;19;153635;-15
2021/12/20 12:49:45;;;;;;;1.20;1.20;;;;;;;;;;7333590;19;161984;-15
2021/12/20 12:52:36;;;;;;;0.93;0.93;;;;;;;;;;7333739;19;162529;-15
2021/12/20 12:55:26;;;;;;;1.10;1.00;;;;;;;;;;7333876;19;154143;-15
2021/12/20 12:57:58;;;;;;;1.38;1.27;;;;;;;;;;7333530;19;153638;-15
2021/12/20 13:00:36;;;;;;;0.90;0.90;;;;;;;;;;7333510;19;161922;-13
2021/12/20 13:03:17;;;;;;;0.90;0.90;;;;;;;;;;7333426;19;162543;-15
2021/12/20 13:05:48;;;;;;;1.10;1.10;;;;;;;;;;7333424;19;154094;-16
2021/12/20 13:08:20;;;;;;;1.23;1.13;;;;;;;;;;7333883;19;153564;-15
2021/12/20 13:10:52;;;;;;;1.25;1.13;;;;;;;;;;7333129;19;162096;-15
2021/12/20 13:13:28;;;;;;;1.15;1.15;;;;;;;;;;7332977;19;162411;-15
2021/12/20 13:16:05;;;;;;;1.17;1.17;;;;;;;;;;7333369;19;153978;-15
2021/12/20 13:18:40;;;;;;;1.05;1.05;;;;;;;;;;7333110;19;153554;-17
2021/12/20 13:21:20;;;;;;;1.23;1.13;;;;;;;;;;7332783;19;161748;-15
2021/12/20 13:23:52;;;;;;;1.30;1.20;;;;;;;;;;7332991;19;162580;-15
2021/12/20 13:26:23;;;;;;;1.20;1.20;;;;;;;;;;7332511;19;154244;-16
2021/12/20 13:28:58;;;;;;;0.93;0.93;;;;;;;;;;7333000;19;153472;-15
2021/12/20 13:31:32;;;;;;;0.98;0.98;;;;;;;;;;7332467;19;162157;-15
2021/12/20 13:34:10;;;;;;;0.98;0.98;;;;;;;;;;7329925;19;162642;-15
2021/12/20 13:36:50;;;;;;;1.00;1.00;;;;;;;;;;7332905;19;154241;-14
2021/12/20 13:39:22;;;;;;;1.13;1.13;;;;;;;;;;7332657;19;153518;-17
2021/12/20 13:41:53;;;;;;;1.17;1.17;;;;;;;;;;7334217;19;162147;-16
2021/12/20 13:44:26;;;;;;;1.20;1.10;;;;;;;;;;7334004;19;162377;-14
2021/12/20 13:47:02;;;;;;;1.20;1.10;;;;;;;;;;7330032;19;154100;-14
2021/12/20 13:49:35;;;;;;;1.13;1.05;;;;;;;;;;7335515;19;153329;-15
2021/12/20 13:52:10;;;;;;;1.10;1.00;;;;;;;;;;7331813;19;161894;-14
2021/12/20 13:54:48;;;;;;;1.20;1.20;;;;;;;;;;7336386;19;162544;-14
2021/12/20 13:57:23;;;;;;;1.20;1.05;;;;;;;;;;7333156;19;153948;-15
2021/12/20 13:59:57;;;;;;;1.20;1.08;;;;;;;;;;7332147;19;153572;-14
2021/12/20 14:02:47;;;;;;;1.48;1.38;;;;;;;;;;7331322;19;162007;-15
2021/12/20 14:05:22;;;;;;;1.13;1.13;;;;;;;;;;7329141;19;162474;-14
2021/12/20 14:07:59;;;;;;;3.00;1.15;;;;;;;;;;7330716;19;154648;-14
2021/12/20 14:10:34;;;;;;;1.30;1.20;;;;;;;;;;7330451;19;153842;-14
2021/12/20 14:13:17;;;;;;;1.20;1.20;;;;;;;;;;7333474;19;162145;-15
2021/12/20 14:15:59;;;;;;;1.55;1.13;;;;;;;;;;7332429;19;162504;-15
2021/12/20 14:18:50;;;;;;;1.52;1.00;;;;;;;;;;7331658;19;153980;-15
2021/12/20 14:21:29;;;;;;;1.25;0.98;;;;;;;;;;7330633;19;153550;-15
2021/12/20 14:24:00;;;;;;;1.25;1.20;;;;;;;;;;7331803;19;161853;-16
2021/12/20 14:26:37;;;;;;;1.90;1.30;;;;;;;;;;7330751;19;162669;-15
2021/12/20 14:29:16;;;;;;;1.15;1.10;;;;;;;;;;7331525;19;154378;-15
2021/12/20 14:31:59;;;;;;;0.93;0.93;;;;;;;;;;7329678;19;153595;-16
2021/12/20 14:34:38;;;;;;;2.30;0.95;;;;;;;;;;7331052;19;161824;-15
2021/12/20 14:37:11;;;;;;;1.15;1.08;;;;;;;;;;7330016;19;162527;-15
2021/12/20 14:39:44;;;;;;;1.08;1.08;;;;;;;;;;7330139;19;154117;-15
2021/12/20 14:42:15;;;;;;;1.10;1.10;;;;;;;;;;7330039;19;154009;-16
2021/12/20 14:44:55;;;;;;;1.45;0.98;;;;;;;;;;7328159;19;161908;-14
2021/12/20 14:47:37;;;;;;;1.17;1.10;;;;;;;;;;7328217;19;163078;-15
2021/12/20 14:50:25;;;;;;;1.52;0.95;;;;;;;;;;7329609;19;154013;-14
2021/12/20 14:52:57;;;;;;;2.85;1.20;;;;;;;;;;7329113;19;153636;-16
2021/12/20 14:55:36;;;;;;;1.17;0.98;;;;;;;;;;7330325;19;162083;-16
2021/12/20 14:58:07;;;;;;;1.65;1.10;;;;;;;;;;7330417;19;162766;-14
2021/12/20 15:00:41;;;;;;;0.98;0.98;;;;;;;;;;7330698;19;154457;-15
2021/12/20 15:03:14;;;;;;;0.98;0.93;;;;;;;;;;7330383;19;153786;-16
2021/12/20 15:05:49;;;;;;;1.52;1.20;;;;;;;;;;7330186;19;161813;-15
2021/12/20 15:08:27;;;;;;;0.90;0.90;;;;;;;;;;7327977;19;162465;-16
2021/12/20 15:10:58;;;;;;;1.17;0.98;;;;;;;;;;7330265;19;154131;-15
2021/12/20 15:13:30;;;;;;;1.30;1.20;;;;;;;;;;7328926;19;153703;-16
2021/12/20 15:16:01;;;;;;;1.20;1.10;;;;;;;;;;7329751;19;162072;-16
2021/12/20 15:18:32;;;;;;;1.25;1.25;;;;;;;;;;7328325;19;162492;-15
2021/12/20 15:21:06;;;;;;;1.20;1.10;;;;;;;;;;7328915;19;154083;-16
2021/12/20 15:23:37;;;;;;;1.00;1.00;;;;;;;;;;7329990;19;153522;-15
2021/12/20 15:26:09;;;;;;;1.23;1.10;;;;;;;;;;7329336;19;162524;-15
2021/12/20 15:28:40;;;;;;;1.73;1.20;;;;;;;;;;7327260;19;162404;-16
2021/12/20 15:31:11;;;;;;;1.25;0.95;;;;;;;;;;7329753;19;154051;-14
2021/12/20 15:33:43;;;;;;;1.17;1.08;;;;;;;;;;7327592;19;153487;-15
2021/12/20 15:36:17;;;;;;;1.17;1.05;;;;;;;;;;7329000;19;162115;-15
2021/12/20 15:38:48;;;;;;;1.27;1.17;;;;;;;;;;7329189;19;162490;-15
2021/12/20 15:41:20;;;;;;;1.10;1.00;;;;;;;;;;7329386;19;154100;-14
2021/12/20 15:43:51;;;;;;;1.00;1.00;;;;;;;;;;7329178;19;153628;-14
2021/12/20 15:46:23;;;;;;;1.30;1.20;;;;;;;;;;7335894;19;162118;-15
2021/12/20 15:48:54;;;;;;;1.20;1.10;;;;;;;;;;7333217;19;162437;-14
2021/12/20 15:51:29;;;;;;;0.80;0.80;;;;;;;;;;7334873;19;154057;-15
2021/12/20 15:54:01;;;;;;;1.17;1.10;;;;;;;;;;7336058;19;153555;-15
2021/12/20 15:56:32;;;;;;;0.85;0.85;;;;;;;;;;7335604;19;161843;-14
2021/12/20 15:59:14;;;;;;;1.10;1.00;;;;;;;;;;7335432;19;162323;-14
2021/12/20 16:01:46;;;;;;;1.00;1.00;;;;;;;;;;7335685;19;153974;-15
2021/12/20 16:04:17;;;;;;;1.05;1.05;;;;;;;;;;7335677;19;153790;-15
2021/12/20 16:06:51;;;;;;;1.15;1.05;;;;;;;;;;7335114;19;162191;-14
2021/12/20 16:09:22;;;;;;;1.27;1.17;;;;;;;;;;7333279;19;162641;-15
2021/12/20 16:11:54;;;;;;;1.00;1.00;;;;;;;;;;7335326;19;153965;-15
2021/12/20 16:14:25;;;;;;;1.23;0.90;;;;;;;;;;7335302;19;153714;-16
2021/12/20 16:16:56;;;;;;;0.90;0.90;;;;;;;;;;7334787;19;161848;-15
2021/12/20 16:19:27;;;;;;;0.90;0.90;;;;;;;;;;7334967;19;162875;-15
2021/12/20 16:22:01;;;;;;;1.10;1.10;;;;;;;;;;7335188;19;154138;-15
2021/12/20 16:24:33;;;;;;;0.90;0.90;;;;;;;;;;7335056;19;153555;-15
2021/12/20 16:27:04;;;;;;;1.05;1.05;;;;;;;;;;7333485;19;161968;-17
2021/12/20 16:29:36;;;;;;;0.93;0.93;;;;;;;;;;7332785;19;162526;-16
2021/12/20 16:32:09;;;;;;;1.33;1.20;;;;;;;;;;7334556;19;154026;-15
2021/12/20 16:34:40;;;;;;;1.17;1.17;;;;;;;;;;7334800;19;153604;-16
2021/12/20 16:37:15;;;;;;;1.33;1.17;;;;;;;;;;7333007;19;161984;-15
2021/12/20 16:39:47;;;;;;;2.05;1.38;;;;;;;;;;7334204;19;162285;-16
2021/12/20 16:42:19;;;;;;;0.98;0.98;;;;;;;;;;7334562;19;154358;-15
2021/12/20 16:44:55;;;;;;;1.50;1.30;;;;;;;;;;7334566;19;153534;-16
2021/12/20 16:47:36;;;;;;;1.20;1.20;;;;;;;;;;7333906;19;162217;-16
2021/12/20 16:50:13;;;;;;;1.10;1.10;;;;;;;;;;7331861;19;162407;-15
2021/12/20 16:52:47;;;;;;;2.25;1.20;;;;;;;;;;7334272;19;154055;-16
2021/12/20 16:55:18;;;;;;;1.20;1.20;;;;;;;;;;7333301;19;153662;-15
2021/12/20 16:57:49;;;;;;;1.25;1.20;;;;;;;;;;7333734;19;161868;-14
2021/12/20 17:00:21;;;;;;;1.40;1.30;;;;;;;;;;7333464;19;162596;-15
2021/12/20 17:03:02;;;;;;;1.10;1.10;;;;;;;;;;7333840;19;155502;-15
2021/12/20 17:05:46;;;;;;;1.20;1.20;;;;;;;;;;7333787;19;153484;-16
2021/12/20 17:08:20;;;;;;;;;;;;;;;;;;7333316;19;161918;-15
2021/12/20 17:10:53;;;;;;;1.15;1.05;;;;;;;;;;7333225;19;163049;-14
2021/12/20 17:13:26;;;;;;;1.30;1.20;;;;;;;;;;7333880;19;154011;-15
2021/12/20 17:15:57;;;;;;;1.25;1.15;;;;;;;;;;7333509;19;153651;-15
2021/12/20 17:18:29;;;;;;;1.20;1.10;;;;;;;;;;7332940;19;161921;-15
2021/12/20 17:21:00;;;;;;;1.33;1.23;;;;;;;;;;7333017;19;162358;-16
2021/12/20 17:23:34;;;;;;;1.58;1.48;;;;;;;;;;7333393;19;154016;-15
2021/12/20 17:26:06;;;;;;;1.50;1.40;;;;;;;;;;7333401;19;154163;-16
2021/12/20 17:28:37;;;;;;;1.90;1.50;;;;;;;;;;7332612;19;161933;-15
2021/12/20 17:31:09;;;;;;;1.10;1.10;;;;;;;;;;7332707;19;162835;-15
2021/12/20 17:33:45;;;;;;;1.30;1.30;;;;;;;;;;7331180;19;153995;-16
2021/12/20 17:36:19;;;;;;;1.65;1.52;;;;;;;;;;7333025;19;153511;-15
2021/12/20 17:39:04;;;;;;;1.52;1.42;;;;;;;;;;7332623;19;161848;-16
2021/12/20 17:41:37;;;;;;;2.17;1.65;;;;;;;;;;7332504;19;162402;-16
2021/12/20 17:44:13;;;;;;;1.42;1.33;;;;;;;;;;7332779;19;153956;-15
2021/12/20 17:46:50;;;;;;;1.48;1.38;;;;;;;;;;7332981;19;153773;-16
2021/12/20 17:49:22;;;;;;;1.88;1.50;;;;;;;;;;7331532;19;161794;-14
2021/12/20 17:51:53;;;;;;;1.77;1.63;;;;;;;;;;7332160;19;162612;-15
2021/12/20 17:54:31;;;;;;;1.95;1.85;;;;;;;;;;7332385;19;154036;-15
2021/12/20 17:57:03;;;;;;;1.83;1.73;;;;;;;;;;7332732;19;154298;-14
2021/12/20 17:59:36;;;;;;;2.15;1.90;;;;;;;;;;7331992;19;161799;-15
2021/12/20 18:02:19;;;;;;;1.70;1.60;;;;;;;;;;7333589;19;162333;-15
2021/12/20 18:04:51;;;;;;;2.00;1.90;;;;;;;;;;7335217;19;154215;-16
2021/12/20 18:07:25;;;;;;;1.98;1.88;;;;;;;;;;7329995;19;153610;-17
2021/12/20 18:10:01;;;;;;;2.60;1.92;;;;;;;;;;7334225;19;162193;-15
2021/12/20 18:12:33;;;;;;;1.50;1.40;;;;;;;;;;7326473;19;162833;-15
2021/12/20 18:15:07;;;;;;;2.65;1.70;;;;;;;;;;7334962;19;154196;-14
2021/12/20 18:17:38;;;;;;;1.77;1.67;;;;;;;;;;7333870;19;153581;-16
2021/12/20 18:20:13;;;;;;;1.60;1.50;;;;;;;;;;7333824;19;161918;-15
2021/12/20 18:22:47;;;;;;;1.70;1.60;;;;;;;;;;7334633;19;162439;-16
2021/12/20 18:25:25;;;;;;;1.58;1.48;;;;;;;;;;7334040;19;153990;-14
2021/12/20 18:27:56;;;;;;;1.67;1.58;;;;;;;;;;7332154;19;153537;-15
2021/12/20 18:30:28;;;;;;;1.50;1.50;;;;;;;;;;7331473;19;161817;-14
2021/12/20 18:32:59;;;;;;;1.75;1.65;;;;;;;;;;7328997;19;162541;-16
2021/12/20 18:35:32;;;;;;;1.70;1.60;;;;;;;;;;7327687;19;154164;-15
2021/12/20 18:38:03;;;;;;;1.90;1.80;;;;;;;;;;7333822;19;153576;-15
2021/12/20 18:40:37;;;;;;;1.60;1.50;;;;;;;;;;7326772;19;161958;-14
2021/12/20 18:43:10;;;;;;;1.55;1.45;;;;;;;;;;7328016;19;162660;-15
2021/12/20 18:45:42;;;;;;;1.70;1.60;;;;;;;;;;7334353;19;154093;-16
2021/12/20 18:48:13;;;;;;;2.00;1.90;;;;;;;;;;7329027;19;153557;-17
2021/12/20 18:50:45;;;;;;;1.52;1.42;;;;;;;;;;7331928;19;161639;-17
2021/12/20 18:53:16;;;;;;;2.13;1.92;;;;;;;;;;7332471;19;162581;-16
2021/12/20 18:55:50;;;;;;;1.50;1.40;;;;;;;;;;7333935;19;154215;-15
2021/12/20 18:58:22;;;;;;;1.90;1.80;;;;;;;;;;7332776;19;153568;-16
2021/12/20 19:00:54;;;;;;;1.87;1.77;;;;;;;;;;7330153;19;162016;-16
2021/12/20 19:03:26;;;;;;;1.70;1.60;;;;;;;;;;7330131;19;162501;-16
2021/12/20 19:06:09;;;;;;;1.67;1.58;;;;;;;;;;7330405;19;154175;-16
2021/12/20 19:08:40;;;;;;;2.50;1.77;;;;;;;;;;7329280;19;153588;-16
2021/12/20 19:11:19;;;;;;;1.88;1.65;;;;;;;;;;7327985;19;161842;-16
2021/12/20 19:13:55;;;;;;;1.70;1.60;;;;;;;;;;7333301;19;162774;-16
2021/12/20 19:16:27;;;;;;;1.70;1.60;;;;;;;;;;7329836;19;154163;-16
2021/12/20 19:18:59;;;;;;;1.70;1.60;;;;;;;;;;7332244;19;153514;-16
2021/12/20 19:21:31;;;;;;;1.83;1.73;;;;;;;;;;7329556;19;161889;-15
2021/12/20 19:24:02;;;;;;;1.60;1.50;;;;;;;;;;7328368;19;162427;-16
2021/12/20 19:26:37;;;;;;;1.90;1.80;;;;;;;;;;7329195;19;154015;-16
2021/12/20 19:29:11;;;;;;;1.70;1.60;;;;;;;;;;7329662;19;153513;-16
2021/12/20 19:31:46;;;;;;;1.83;1.73;;;;;;;;;;7326441;19;161883;-16
2021/12/20 19:34:25;;;;;;;2.35;1.75;;;;;;;;;;7325074;19;162681;-16
2021/12/20 19:37:00;;;;;;;1.92;1.80;;;;;;;;;;7329508;19;154156;-17
2021/12/20 19:39:36;;;;;;;2.10;2.00;;;;;;;;;;7329294;19;153541;-16
2021/12/20 19:42:12;;;;;;;1.50;1.40;;;;;;;;;;7329085;19;161807;-16
2021/12/20 19:44:44;;;;;;;1.75;1.65;;;;;;;;;;7324544;19;162381;-15
2021/12/20 19:47:16;;;;;;;1.77;1.67;;;;;;;;;;7327636;19;153955;-16
2021/12/20 19:49:47;;;;;;;1.75;1.65;;;;;;;;;;7328210;19;153686;-15
2021/12/20 19:52:31;;;;;;;2.22;1.88;;;;;;;;;;7326179;19;161934;-17
2021/12/20 19:55:04;;;;;;;1.60;1.50;;;;;;;;;;7328496;19;163018;-15
2021/12/20 19:57:38;;;;;;;1.60;1.50;;;;;;;;;;7328718;19;154099;-22
2021/12/20 20:00:11;;;;;;;1.40;1.40;;;;;;;;;;7328790;19;153503;-14
2021/12/20 20:02:42;;;;;;;;;;;;;;;;;;7328857;19;161862;-15
2021/12/20 20:05:14;;;;;;;2.08;1.60;;;;;;;;;;7329090;19;162657;-16
2021/12/20 20:07:45;;;;;;;2.00;1.90;;;;;;;;;;7331917;19;153995;-16
2021/12/20 20:10:27;;;;;;;2.15;1.95;;;;;;;;;;7331539;19;153559;-14
2021/12/20 20:13:02;;;;;;;1.80;1.70;;;;;;;;;;7329797;19;161980;-15
2021/12/20 20:15:34;;;;;;;1.65;1.55;;;;;;;;;;7331315;19;162509;-16
2021/12/20 20:18:06;;;;;;;2.10;2.00;;;;;;;;;;7331133;19;154158;-15
2021/12/20 20:20:38;;;;;;;2.30;2.20;;;;;;;;;;7330870;19;153658;-14
2021/12/20 20:23:09;;;;;;;1.90;1.80;;;;;;;;;;7327490;19;161780;-15
2021/12/20 20:25:40;;;;;;;2.45;2.25;;;;;;;;;;7326184;19;162455;-16
2021/12/20 20:28:14;;;;;;;8.23;5.22;;;;;;;;;;7327453;19;153776;-15
2021/12/20 20:30:49;;;;;;;6.65;5.82;;;;;;;;;;7333719;19;153526;-15
2021/12/20 20:33:21;;;;;;;7.80;5.65;;;;;;;;;;7332729;19;161799;-15
2021/12/20 20:35:52;;;;;;;6.00;5.07;;;;;;;;;;7338441;19;162595;-14
2021/12/20 20:38:23;;;;;;;5.95;4.57;;;;;;;;;;7338075;19;154221;-15
2021/12/20 20:40:55;;;;;;;6.40;4.72;;;;;;;;;;7337280;19;154149;-16
2021/12/20 20:43:29;;;;;;;5.90;4.50;;;;;;;;;;7334691;19;161968;-15
2021/12/20 20:46:00;;;;;;;5.85;4.68;;;;;;;;;;7334275;19;162682;-16
2021/12/20 20:48:32;;;;;;;5.43;4.90;;;;;;;;;;7337457;19;153954;-15
2021/12/20 20:51:04;;;;;;;5.38;4.82;;;;;;;;;;7337251;19;153635;-15
2021/12/20 20:53:35;;;;;;;5.90;4.68;;;;;;;;;;7334441;19;161815;-14
2021/12/20 20:56:10;;;;;;;5.10;4.50;;;;;;;;;;7334544;19;162372;-15
2021/12/20 20:58:44;;;;;;;4.32;3.92;;;;;;;;;;7334449;19;153944;-16
2021/12/20 21:01:31;;;;;;;6.15;4.65;;;;;;;;;;7335976;19;153564;-15
2021/12/20 21:04:06;;;;;;;5.00;4.50;;;;;;;;;;7336966;19;161952;-16
2021/12/20 21:06:39;;;;;;;4.38;3.97;;;;;;;;;;7336777;19;162597;-15
2021/12/20 21:09:12;;;;;;;4.28;3.88;;;;;;;;;;7335306;19;154043;-15
2021/12/20 21:11:51;;;;;;;4.60;4.15;;;;;;;;;;7335660;19;153696;-16
2021/12/20 21:14:28;;;;;;;6.70;4.32;;;;;;;;;;7337298;19;161844;-17
2021/12/20 21:17:07;;;;;;;5.15;4.65;;;;;;;;;;7334013;19;162153;-18
2021/12/20 21:19:40;;;;;;;5.47;4.40;;;;;;;;;;7336479;19;153963;-16
2021/12/20 21:22:13;;;;;;;5.35;4.47;;;;;;;;;;7335874;19;153610;-15
2021/12/20 21:24:49;;;;;;;4.80;4.40;;;;;;;;;;7334242;19;161837;-16
2021/12/20 21:27:21;;;;;;;4.53;4.13;;;;;;;;;;7333222;19;162413;-14
2021/12/20 21:29:57;;;;;;;4.93;4.25;;;;;;;;;;7336751;19;153882;-15
2021/12/20 21:32:30;;;;;;;4.13;3.78;;;;;;;;;;7333869;19;153568;-15
2021/12/20 21:35:01;;;;;;;4.28;3.95;;;;;;;;;;7335682;19;161875;-14
2021/12/20 21:37:34;;;;;;;5.47;4.38;;;;;;;;;;7334044;19;162781;-15
2021/12/20 21:40:08;;;;;;;4.55;3.88;;;;;;;;;;7336415;19;154099;-16
2021/12/20 21:42:41;;;;;;;3.67;3.40;;;;;;;;;;7334991;19;153535;-15
2021/12/20 21:45:18;;;;;;;4.03;3.70;;;;;;;;;;7334611;19;162050;-16
2021/12/20 21:47:50;;;;;;;4.45;4.05;;;;;;;;;;7335759;19;162446;-14